Time;durP1;ratioP1;P1;durP2;ratioP2;P2;SDS_P1;SDS_P2;PMS_P1;PMS_P2;Temp;Humidity;BMP_temperature;BMP_pressure;BME280_temperature;BME280_humidity;BME280_pressure;Samples;Min_cycle;Max_cycle;Signal;HPM_P1;HPM_P2
2021/01/02 05:02:42;;;;;;;22.30;17.23;;;2.10;99.90;;;;;;4975036;23;20494;-66
2021/01/02 05:05:10;;;;;;;24.60;17.33;;;2.10;99.90;;;;;;4974956;28;20479;-65
2021/01/02 05:07:36;;;;;;;26.50;19.13;;;2.20;99.90;;;;;;4974621;28;20934;-65
2021/01/02 05:10:04;;;;;;;22.80;16.93;;;2.20;99.90;;;;;;4974906;28;20459;-64
2021/01/02 05:12:32;;;;;;;24.07;16.83;;;2.20;99.90;;;;;;4974770;28;20481;-66
2021/01/02 05:14:59;;;;;;;30.80;19.50;;;2.20;99.90;;;;;;4974776;28;20474;-65
2021/01/02 05:17:26;;;;;;;37.97;22.40;;;2.20;99.90;;;;;;4974756;28;20455;-65
2021/01/02 05:20:02;;;;;;;35.10;21.80;;;2.30;99.90;;;;;;4974102;28;20510;-65
2021/01/02 05:22:28;;;;;;;34.47;22.47;;;2.20;99.90;;;;;;4974435;28;20485;-66
2021/01/02 05:25:08;;;;;;;42.87;22.10;;;2.20;99.90;;;;;;4974292;28;20482;-64
2021/01/02 05:27:34;;;;;;;31.53;18.83;;;2.20;99.90;;;;;;4974390;28;20434;-65
2021/01/02 05:30:28;;;;;;;30.50;19.23;;;2.20;99.90;;;;;;4974161;28;20954;-65
2021/01/02 05:33:00;;;;;;;34.00;19.10;;;2.20;99.90;;;;;;4951042;28;21004;-66
2021/01/02 05:35:29;;;;;;;43.70;20.73;;;2.20;99.90;;;;;;4974590;28;20454;-65
2021/01/02 05:38:19;;;;;;;35.90;20.00;;;2.20;99.90;;;;;;4974283;28;20461;-65
2021/01/02 05:40:48;;;;;;;37.53;19.37;;;2.10;99.90;;;;;;4976818;28;20509;-65
2021/01/02 05:43:16;;;;;;;41.93;22.93;;;2.10;99.90;;;;;;4978201;28;20458;-66
2021/01/02 05:45:43;;;;;;;36.30;20.03;;;2.20;99.90;;;;;;4978047;28;20937;-65
2021/01/02 05:48:18;;;;;;;45.93;21.70;;;2.20;99.90;;;;;;4978570;28;20455;-65
2021/01/02 05:50:47;;;;;;;45.37;22.27;;;2.30;99.90;;;;;;4977539;28;20478;-65
2021/01/02 05:53:22;;;;;;;48.67;23.23;;;2.20;99.90;;;;;;4977891;28;20462;-65
2021/01/02 05:56:00;;;;;;;39.93;21.50;;;2.40;99.90;;;;;;4977570;28;20438;-66
2021/01/02 05:58:27;;;;;;;46.70;21.80;;;2.40;99.90;;;;;;4977961;28;20475;-65
2021/01/02 06:01:06;;;;;;;38.23;21.80;;;2.40;99.90;;;;;;4977550;28;20497;-66
2021/01/02 06:03:33;;;;;;;47.67;22.93;;;2.40;99.90;;;;;;4977497;28;20822;-65
2021/01/02 06:06:02;;;;;;;46.53;22.17;;;2.50;99.90;;;;;;4977734;28;20454;-65
2021/01/02 06:08:33;;;;;;;47.03;23.70;;;2.50;99.90;;;;;;4977821;28;20827;-65
2021/01/02 06:11:01;;;;;;;46.17;23.00;;;2.50;99.90;;;;;;4977570;28;20493;-66
2021/01/02 06:13:29;;;;;;;43.10;23.23;;;2.60;99.90;;;;;;4977585;28;20451;-65
2021/01/02 06:15:58;;;;;;;46.73;24.23;;;2.60;99.90;;;;;;4977550;28;20500;-65
2021/01/02 06:18:24;;;;;;;43.57;22.50;;;2.60;99.90;;;;;;4977291;28;20964;-66
2021/01/02 06:20:51;;;;;;;39.87;21.50;;;2.60;99.90;;;;;;4977724;28;20474;-65
2021/01/02 06:23:19;;;;;;;40.53;21.53;;;2.60;99.90;;;;;;4977484;28;20509;-65
2021/01/02 06:25:47;;;;;;;39.17;21.60;;;2.70;99.90;;;;;;4977385;28;20482;-64
2021/01/02 06:28:15;;;;;;;40.60;21.60;;;2.60;99.90;;;;;;4977346;28;20490;-66
2021/01/02 06:30:41;;;;;;;39.33;21.40;;;2.60;99.90;;;;;;4977136;28;20498;-66
2021/01/02 06:33:12;;;;;;;42.60;21.77;;;2.50;99.90;;;;;;4977927;28;20517;-66
2021/01/02 06:35:39;;;;;;;41.40;20.80;;;2.50;99.90;;;;;;4977183;28;20442;-66
2021/01/02 06:38:11;;;;;;;34.97;19.70;;;2.40;99.90;;;;;;4977348;28;20454;-65
2021/01/02 06:40:40;;;;;;;37.20;19.70;;;2.40;99.90;;;;;;4977277;28;20506;-64
2021/01/02 06:43:08;;;;;;;39.10;20.73;;;2.40;99.90;;;;;;4976737;28;20458;-65
2021/01/02 06:45:58;;;;;;;43.77;21.70;;;2.40;99.90;;;;;;4977308;28;20458;-65
2021/01/02 06:48:46;;;;;;;43.17;21.23;;;2.30;99.90;;;;;;4977361;28;20439;-65
2021/01/02 06:51:32;;;;;;;39.97;19.60;;;2.30;99.90;;;;;;4977295;28;20657;-65
2021/01/02 06:54:03;;;;;;;51.50;20.83;;;2.20;99.90;;;;;;4977056;28;20446;-65
2021/01/02 06:56:32;;;;;;;40.53;21.13;;;2.30;99.90;;;;;;4977232;28;20455;-65
2021/01/02 06:58:58;;;;;;;51.73;21.13;;;2.20;99.90;;;;;;4977052;28;20454;-65
2021/01/02 07:01:39;;;;;;;51.60;24.60;;;2.20;99.90;;;;;;4976463;28;20489;-65
2021/01/02 07:04:05;;;;;;;46.73;22.73;;;2.20;99.90;;;;;;4976855;28;20510;-65
2021/01/02 07:06:37;;;;;;;60.07;25.40;;;2.20;99.90;;;;;;4976758;28;20922;-66
2021/01/02 07:09:09;;;;;;;51.73;23.07;;;2.20;99.90;;;;;;4977365;28;20458;-65
2021/01/02 07:11:38;;;;;;;59.53;24.40;;;2.10;99.90;;;;;;4976380;28;20494;-65
2021/01/02 07:14:24;;;;;;;52.63;23.70;;;2.10;99.90;;;;;;4976505;28;20934;-65
2021/01/02 07:16:56;;;;;;;61.10;23.13;;;2.10;99.90;;;;;;4976763;28;20455;-65
2021/01/02 07:19:30;;;;;;;46.67;22.90;;;2.10;99.90;;;;;;4977725;28;20443;-65
2021/01/02 07:21:58;;;;;;;51.20;22.90;;;2.20;99.90;;;;;;4976437;28;20569;-65
2021/01/02 07:24:25;;;;;;;43.80;20.43;;;2.20;99.90;;;;;;4976284;28;20517;-65
2021/01/02 07:26:58;;;;;;;49.07;22.93;;;2.20;99.90;;;;;;4976570;28;20795;-65
2021/01/02 07:29:25;;;;;;;48.53;23.90;;;2.30;99.90;;;;;;4976188;28;20886;-65
2021/01/02 07:31:52;;;;;;;49.07;22.70;;;2.40;99.90;;;;;;4975866;28;21020;-65
2021/01/02 07:34:19;;;;;;;52.80;22.17;;;2.40;99.90;;;;;;4976413;28;20454;-65
2021/01/02 07:36:46;;;;;;;54.10;23.77;;;2.30;99.90;;;;;;4976093;28;20459;-65
2021/01/02 07:39:12;;;;;;;59.07;22.77;;;2.40;99.90;;;;;;4976133;28;20865;-65
2021/01/02 07:41:39;;;;;;;56.43;23.77;;;2.50;99.90;;;;;;4976057;28;20479;-65
2021/01/02 07:44:07;;;;;;;77.63;23.43;;;2.60;99.90;;;;;;4975902;28;20506;-65
2021/01/02 07:46:40;;;;;;;114.33;24.37;;;2.50;99.90;;;;;;4976229;28;20544;-64
2021/01/02 07:49:06;;;;;;;51.60;24.20;;;2.50;99.90;;;;;;4976109;28;20481;-65
2021/01/02 07:51:33;;;;;;;94.23;24.93;;;2.60;99.90;;;;;;4975965;28;20478;-65
2021/01/02 07:53:59;;;;;;;78.90;25.70;;;2.60;99.90;;;;;;4976025;28;20454;-65
2021/01/02 07:56:36;;;;;;;132.13;29.23;;;2.60;99.90;;;;;;4975648;28;20458;-64
2021/01/02 07:59:22;;;;;;;106.80;27.20;;;2.60;99.90;;;;;;4975587;28;20450;-62
2021/01/02 08:01:50;;;;;;;55.43;25.80;;;2.60;99.90;;;;;;4975052;28;20487;-62
2021/01/02 08:04:18;;;;;;;58.87;26.13;;;2.60;99.90;;;;;;4975152;28;20514;-62
2021/01/02 08:06:46;;;;;;;60.63;26.00;;;2.70;99.90;;;;;;4975533;28;20482;-62
2021/01/02 08:09:13;;;;;;;79.30;24.37;;;2.70;99.90;;;;;;4975455;28;20459;-63
2021/01/02 08:11:46;;;;;;;89.40;24.57;;;2.70;99.90;;;;;;4975393;28;20838;-62
2021/01/02 08:14:12;;;;;;;73.13;23.60;;;2.60;99.90;;;;;;4974981;28;20971;-62
2021/01/02 08:16:40;;;;;;;57.97;24.40;;;2.60;99.90;;;;;;4975196;28;20514;-63
2021/01/02 08:19:06;;;;;;;63.07;25.70;;;2.60;99.90;;;;;;4975372;28;20518;-62
2021/01/02 08:21:38;;;;;;;66.53;24.47;;;2.60;99.90;;;;;;4975143;28;20474;-63
2021/01/02 08:24:05;;;;;;;52.33;24.57;;;2.70;99.90;;;;;;4975060;28;20557;-63
2021/01/02 08:26:32;;;;;;;77.07;22.73;;;2.70;99.90;;;;;;4975226;28;20826;-62
2021/01/02 08:28:59;;;;;;;51.47;21.37;;;2.70;99.90;;;;;;4975464;28;20461;-63
2021/01/02 08:31:26;;;;;;;57.57;24.87;;;2.80;99.90;;;;;;4975447;28;20545;-63
2021/01/02 08:33:56;;;;;;;59.37;22.40;;;2.90;99.90;;;;;;4975405;28;20459;-63
2021/01/02 08:36:22;;;;;;;59.50;24.33;;;2.80;99.90;;;;;;4975290;28;20443;-63
2021/01/02 08:38:56;;;;;;;49.30;22.60;;;2.80;99.90;;;;;;4974586;28;20877;-63
2021/01/02 08:41:23;;;;;;;49.53;23.80;;;2.80;99.90;;;;;;4974614;28;20480;-62
2021/01/02 08:43:50;;;;;;;45.47;22.83;;;2.90;99.90;;;;;;4975730;28;20816;-63
2021/01/02 08:46:23;;;;;;;43.93;23.53;;;2.90;99.90;;;;;;4974558;28;20980;-62
2021/01/02 08:48:49;;;;;;;39.40;23.27;;;3.10;99.90;;;;;;4974551;28;20599;-62
2021/01/02 08:51:23;;;;;;;34.17;21.77;;;3.00;99.90;;;;;;4974790;28;20506;-62
2021/01/02 08:53:49;;;;;;;32.30;21.00;;;3.30;99.90;;;;;;4974818;28;20451;-62
2021/01/02 08:56:22;;;;;;;36.37;22.30;;;3.50;99.90;;;;;;4974854;28;20521;-63
2021/01/02 08:58:49;;;;;;;41.10;23.20;;;3.70;99.90;;;;;;4974943;28;20450;-63
2021/01/02 09:01:15;;;;;;;38.70;21.77;;;3.70;99.90;;;;;;4974524;28;20872;-64
2021/01/02 09:03:41;;;;;;;37.70;22.90;;;3.70;99.90;;;;;;4974661;28;20491;-64
2021/01/02 09:06:18;;;;;;;32.57;22.37;;;3.50;99.90;;;;;;4976331;28;20455;-63
2021/01/02 09:08:45;;;;;;;35.73;21.70;;;3.40;99.90;;;;;;4985634;28;20454;-63
2021/01/02 09:11:12;;;;;;;37.87;22.40;;;3.30;99.90;;;;;;4983562;28;20475;-63
2021/01/02 09:13:38;;;;;;;39.93;23.93;;;3.20;99.90;;;;;;4979566;28;20474;-63
2021/01/02 09:16:06;;;;;;;40.30;22.83;;;3.10;99.90;;;;;;4974396;28;20855;-64
2021/01/02 09:18:38;;;;;;;34.83;21.43;;;3.20;99.90;;;;;;4975155;28;20462;-62
2021/01/02 09:21:19;;;;;;;39.50;23.83;;;3.20;99.90;;;;;;4975242;28;20485;-64
2021/01/02 09:23:46;;;;;;;38.67;23.27;;;3.10;99.90;;;;;;4975122;28;20478;-64
2021/01/02 09:26:21;;;;;;;37.67;22.57;;;3.10;99.90;;;;;;4974972;28;20454;-62
2021/01/02 09:28:48;;;;;;;37.93;23.30;;;3.10;99.90;;;;;;4974499;28;20901;-62
2021/01/02 09:31:14;;;;;;;40.47;22.87;;;3.00;99.90;;;;;;4974615;28;20478;-62
2021/01/02 09:33:41;;;;;;;41.47;22.27;;;3.00;99.90;;;;;;4974494;28;20454;-62
2021/01/02 09:36:07;;;;;;;37.93;23.87;;;3.00;99.90;;;;;;4974223;28;20481;-62
2021/01/02 09:38:33;;;;;;;38.57;22.07;;;2.90;99.90;;;;;;4974355;28;20469;-63
2021/01/02 09:41:00;;;;;;;37.33;23.13;;;2.90;99.90;;;;;;4974201;28;20478;-62
2021/01/02 09:43:28;;;;;;;36.73;23.27;;;3.00;99.90;;;;;;4974512;28;20458;-63
2021/01/02 09:45:54;;;;;;;39.23;22.33;;;3.10;99.90;;;;;;4974166;28;20455;-62
2021/01/02 09:48:21;;;;;;;38.57;22.63;;;3.00;99.90;;;;;;4973987;28;20458;-63
2021/01/02 09:50:47;;;;;;;34.07;22.13;;;3.00;99.90;;;;;;4974191;28;20537;-63
2021/01/02 09:53:14;;;;;;;33.20;21.73;;;3.00;99.90;;;;;;4974082;28;20775;-62
2021/01/02 09:55:41;;;;;;;32.67;20.93;;;3.00;99.90;;;;;;4973938;28;20458;-63
2021/01/02 09:58:09;;;;;;;32.67;21.07;;;3.10;99.90;;;;;;4974101;28;20455;-63
2021/01/02 10:00:36;;;;;;;32.60;20.50;;;3.10;99.90;;;;;;4974149;28;20490;-62
2021/01/02 10:03:02;;;;;;;35.13;22.00;;;3.20;99.90;;;;;;4974672;28;20439;-62
2021/01/02 10:05:28;;;;;;;35.00;21.47;;;3.20;99.90;;;;;;4974276;28;20486;-63
2021/01/02 10:07:55;;;;;;;33.60;20.87;;;3.30;99.90;;;;;;4974038;28;20513;-63
2021/01/02 10:10:21;;;;;;;41.07;22.40;;;3.50;99.90;;;;;;4973788;28;20455;-63
2021/01/02 10:12:49;;;;;;;31.07;21.00;;;3.50;99.90;;;;;;4973918;28;20462;-63
2021/01/02 10:15:17;;;;;;;36.30;21.23;;;3.50;99.90;;;;;;4973878;28;20521;-63
2021/01/02 10:17:44;;;;;;;33.70;22.60;;;3.50;99.90;;;;;;4974285;28;20533;-62
2021/01/02 10:20:12;;;;;;;38.50;21.63;;;3.50;99.90;;;;;;4973798;28;20465;-62
2021/01/02 10:22:39;;;;;;;32.47;20.77;;;3.60;99.90;;;;;;4973832;28;20458;-62
2021/01/02 10:25:07;;;;;;;32.83;20.93;;;3.60;99.90;;;;;;4973731;28;20490;-62
2021/01/02 10:27:33;;;;;;;32.80;19.73;;;4.10;99.90;;;;;;4977569;28;20469;-65
2021/01/02 10:30:00;;;;;;;25.57;17.27;;;4.40;99.90;;;;;;4977302;28;20513;-63
2021/01/02 10:32:29;;;;;;;25.73;18.87;;;4.70;99.90;;;;;;4976767;28;20485;-63
2021/01/02 10:34:55;;;;;;;25.87;20.13;;;4.90;99.90;;;;;;4977663;28;20438;-63
2021/01/02 10:37:24;;;;;;;25.90;19.23;;;5.50;99.90;;;;;;4977298;28;20458;-64
2021/01/02 10:39:51;;;;;;;28.17;20.63;;;5.50;99.90;;;;;;4977301;28;20465;-64
2021/01/02 10:42:22;;;;;;;22.43;17.83;;;5.60;99.90;;;;;;4978150;28;20482;-65
2021/01/02 10:44:48;;;;;;;26.27;19.00;;;5.70;99.90;;;;;;4977851;28;20467;-64
2021/01/02 10:47:17;;;;;;;26.30;19.53;;;5.60;99.90;;;;;;4977677;28;20867;-64
2021/01/02 10:49:45;;;;;;;25.80;19.30;;;5.40;99.90;;;;;;4977055;28;20942;-65
2021/01/02 10:52:11;;;;;;;25.83;18.17;;;5.20;99.90;;;;;;4977813;28;20479;-63
2021/01/02 10:54:37;;;;;;;24.73;17.73;;;5.30;99.90;;;;;;4978590;28;20454;-64
2021/01/02 10:57:04;;;;;;;21.87;16.87;;;5.10;99.90;;;;;;4978553;28;20461;-64
2021/01/02 10:59:30;;;;;;;24.70;18.67;;;5.10;99.90;;;;;;4977455;28;20474;-64
2021/01/02 11:01:56;;;;;;;24.67;19.10;;;5.00;99.90;;;;;;4976662;28;20489;-64
2021/01/02 11:04:26;;;;;;;25.40;17.60;;;4.60;99.90;;;;;;4976745;28;20533;-66
2021/01/02 11:06:54;;;;;;;25.93;18.90;;;4.60;99.90;;;;;;4977199;28;20462;-63
2021/01/02 11:09:22;;;;;;;24.73;17.77;;;4.30;99.90;;;;;;4977050;28;20470;-65
2021/01/02 11:11:49;;;;;;;22.37;16.27;;;4.30;99.90;;;;;;4976759;28;20481;-63
2021/01/02 11:14:16;;;;;;;21.73;16.77;;;4.30;99.90;;;;;;4976781;28;20510;-64
2021/01/02 11:16:44;;;;;;;24.57;18.00;;;4.20;99.90;;;;;;4977374;28;20470;-65
2021/01/02 11:19:11;;;;;;;25.63;18.60;;;4.20;99.90;;;;;;4978854;28;20502;-64
2021/01/02 11:21:37;;;;;;;22.37;17.33;;;4.20;99.90;;;;;;4976135;28;20521;-64
2021/01/02 11:24:06;;;;;;;24.40;18.57;;;4.20;99.90;;;;;;4976930;28;20486;-63
2021/01/02 11:26:32;;;;;;;22.43;16.57;;;4.20;99.90;;;;;;4976840;28;20458;-63
2021/01/02 11:28:58;;;;;;;20.80;16.27;;;4.30;99.90;;;;;;4977080;28;20461;-63
2021/01/02 11:31:29;;;;;;;21.93;16.80;;;4.20;99.90;;;;;;4976548;28;21008;-64
2021/01/02 11:33:55;;;;;;;23.60;16.90;;;4.10;99.90;;;;;;4976650;28;20509;-65
2021/01/02 11:36:21;;;;;;;20.23;16.20;;;4.00;99.90;;;;;;4976490;28;20461;-64
2021/01/02 11:38:48;;;;;;;21.57;17.10;;;4.10;99.90;;;;;;4975608;28;20454;-64
2021/01/02 11:41:16;;;;;;;20.60;16.60;;;4.10;99.90;;;;;;4976325;28;20479;-65
2021/01/02 11:43:43;;;;;;;20.80;16.40;;;4.00;99.90;;;;;;4976192;28;20455;-64
2021/01/02 11:46:09;;;;;;;21.30;16.43;;;4.10;99.90;;;;;;4976386;28;20447;-65
2021/01/02 11:48:36;;;;;;;23.93;16.23;;;4.20;99.90;;;;;;4976174;28;20451;-64
2021/01/02 11:51:03;;;;;;;20.90;15.40;;;4.30;99.90;;;;;;4975886;28;20474;-64
2021/01/02 11:53:29;;;;;;;23.93;18.60;;;4.20;99.90;;;;;;4976587;28;20859;-65
2021/01/02 11:55:55;;;;;;;22.20;17.00;;;4.10;99.90;;;;;;4975977;28;20455;-63
2021/01/02 11:58:22;;;;;;;24.60;17.50;;;4.10;99.90;;;;;;4976093;28;20443;-64
2021/01/02 12:00:48;;;;;;;22.53;17.07;;;4.20;99.90;;;;;;4975919;28;20478;-64
2021/01/02 12:03:14;;;;;;;20.57;16.40;;;4.20;99.90;;;;;;4975867;28;20435;-65
2021/01/02 12:05:40;;;;;;;20.37;16.50;;;4.20;99.90;;;;;;4975661;28;20629;-64
2021/01/02 12:08:07;;;;;;;20.83;15.87;;;4.20;99.90;;;;;;4975542;28;20439;-64
2021/01/02 12:10:33;;;;;;;21.90;17.63;;;4.10;99.90;;;;;;4975546;28;20454;-63
2021/01/02 12:12:59;;;;;;;21.00;17.03;;;4.10;99.90;;;;;;4975485;28;20462;-65
2021/01/02 12:15:26;;;;;;;22.30;17.27;;;4.00;99.90;;;;;;4975908;28;20439;-63
2021/01/02 12:17:52;;;;;;;21.57;17.10;;;4.10;99.90;;;;;;4978018;28;20439;-64
2021/01/02 12:20:18;;;;;;;21.80;16.37;;;4.10;99.90;;;;;;4976415;28;20439;-64
2021/01/02 12:22:44;;;;;;;23.07;16.97;;;4.00;99.90;;;;;;4976111;28;20513;-64
2021/01/02 12:25:12;;;;;;;24.00;16.40;;;4.10;99.90;;;;;;4975459;28;20563;-64
2021/01/02 12:27:38;;;;;;;22.87;17.27;;;4.10;99.90;;;;;;4975168;28;20455;-62
2021/01/02 12:30:05;;;;;;;21.80;16.87;;;4.20;99.90;;;;;;4975185;28;20458;-62
2021/01/02 12:32:32;;;;;;;22.07;16.50;;;4.20;99.90;;;;;;4975441;28;20783;-64
2021/01/02 12:34:59;;;;;;;22.40;17.50;;;4.20;99.90;;;;;;4974750;28;20439;-64
2021/01/02 12:37:25;;;;;;;20.53;15.83;;;4.10;99.90;;;;;;4975096;28;20446;-64
2021/01/02 12:39:51;;;;;;;20.60;17.10;;;4.20;99.90;;;;;;4974604;28;20458;-63
2021/01/02 12:42:17;;;;;;;18.70;15.27;;;4.30;99.90;;;;;;4975656;28;20486;-63
2021/01/02 12:44:49;;;;;;;22.77;17.00;;;4.30;99.90;;;;;;4975237;28;20482;-62
2021/01/02 12:47:17;;;;;;;22.03;17.90;;;4.30;99.90;;;;;;4975174;28;20443;-63
2021/01/02 12:49:45;;;;;;;21.77;16.30;;;4.30;99.90;;;;;;4975240;28;20455;-62
2021/01/02 12:52:12;;;;;;;22.70;16.80;;;4.40;99.90;;;;;;4974945;28;20474;-63
2021/01/02 12:54:39;;;;;;;24.17;17.57;;;4.40;99.90;;;;;;4974704;28;20838;-63
2021/01/02 12:57:06;;;;;;;21.00;16.30;;;4.50;99.90;;;;;;4975654;28;20439;-62
2021/01/02 12:59:34;;;;;;;22.17;16.20;;;4.50;99.90;;;;;;4974672;28;20458;-63
2021/01/02 13:02:03;;;;;;;22.60;16.77;;;4.50;99.90;;;;;;4974777;28;20508;-62
2021/01/02 13:04:29;;;;;;;23.60;16.93;;;4.50;99.90;;;;;;4974641;28;20501;-64
2021/01/02 13:06:57;;;;;;;22.33;17.30;;;4.60;99.90;;;;;;4975169;28;20960;-64
2021/01/02 13:09:25;;;;;;;21.73;17.10;;;4.60;99.90;;;;;;4975111;28;20458;-64
2021/01/02 13:11:53;;;;;;;23.17;17.90;;;4.70;99.90;;;;;;4975106;28;20493;-62
2021/01/02 13:14:20;;;;;;;25.27;18.33;;;4.60;99.90;;;;;;4975389;28;20490;-63
2021/01/02 13:16:48;;;;;;;24.57;18.60;;;4.70;99.90;;;;;;4974656;28;20455;-63
2021/01/02 13:19:14;;;;;;;19.90;16.33;;;4.70;99.90;;;;;;4975134;28;20454;-64
2021/01/02 13:21:45;;;;;;;18.90;15.50;;;4.70;99.90;;;;;;4974801;28;20478;-64
2021/01/02 13:24:13;;;;;;;21.87;17.00;;;4.70;99.90;;;;;;4974500;28;20522;-64
2021/01/02 13:26:39;;;;;;;19.10;16.50;;;4.60;99.90;;;;;;4974682;28;20486;-63
2021/01/02 13:29:06;;;;;;;19.70;15.03;;;4.60;99.90;;;;;;4974418;28;20516;-63
2021/01/02 13:31:40;;;;;;;21.90;15.80;;;4.60;99.90;;;;;;4974263;28;20539;-63
2021/01/02 13:34:08;;;;;;;20.53;15.50;;;4.50;99.90;;;;;;4974355;28;20451;-64
2021/01/02 13:36:34;;;;;;;20.17;15.23;;;4.40;99.90;;;;;;4974278;28;20903;-63
2021/01/02 13:39:00;;;;;;;17.97;16.00;;;4.40;99.90;;;;;;4974229;28;20458;-63
2021/01/02 13:41:27;;;;;;;18.87;15.83;;;4.40;99.90;;;;;;4974373;28;20481;-64
2021/01/02 13:43:53;;;;;;;22.00;16.47;;;4.40;99.90;;;;;;4974568;28;20439;-64
2021/01/02 13:46:20;;;;;;;20.60;15.93;;;4.50;99.90;;;;;;4974634;28;20458;-64
2021/01/02 13:48:46;;;;;;;18.77;15.60;;;4.40;99.90;;;;;;4974552;28;20466;-64
2021/01/02 13:51:12;;;;;;;20.80;17.10;;;4.50;99.90;;;;;;4974439;28;20481;-63
2021/01/02 13:53:38;;;;;;;17.90;15.30;;;4.30;99.90;;;;;;4974353;28;20806;-63
2021/01/02 13:56:09;;;;;;;21.73;15.37;;;4.40;99.90;;;;;;4974170;28;20435;-64
2021/01/02 13:58:37;;;;;;;18.67;14.30;;;4.40;99.90;;;;;;4974464;28;20442;-63
2021/01/02 14:01:04;;;;;;;18.57;14.67;;;4.30;99.90;;;;;;4975154;28;20537;-65
2021/01/02 14:03:30;;;;;;;18.70;15.10;;;4.20;99.90;;;;;;4977643;28;20975;-63
2021/01/02 14:05:56;;;;;;;20.53;16.23;;;4.20;99.90;;;;;;4978324;28;20485;-64
2021/01/02 14:08:23;;;;;;;19.47;15.53;;;4.20;99.90;;;;;;4978168;28;20438;-63
2021/01/02 14:10:49;;;;;;;19.70;15.40;;;4.30;99.90;;;;;;4978060;28;20482;-62
2021/01/02 14:13:15;;;;;;;19.50;15.97;;;4.30;99.90;;;;;;4978574;28;20458;-64
2021/01/02 14:15:42;;;;;;;21.37;16.33;;;4.30;99.90;;;;;;4990166;28;20450;-63
2021/01/02 14:18:09;;;;;;;23.00;17.87;;;4.40;99.90;;;;;;4992088;28;20458;-63
2021/01/02 14:20:35;;;;;;;23.03;17.27;;;4.50;99.90;;;;;;4991573;28;20550;-62
2021/01/02 14:23:01;;;;;;;19.83;15.97;;;4.40;99.90;;;;;;4981801;28;20930;-63
2021/01/02 14:25:27;;;;;;;19.07;15.40;;;4.40;99.90;;;;;;4978200;28;20487;-63
2021/01/02 14:27:53;;;;;;;23.70;19.30;;;4.40;99.90;;;;;;4978033;28;20533;-63
2021/01/02 14:30:20;;;;;;;20.37;16.20;;;4.30;99.90;;;;;;4977593;28;20898;-62
2021/01/02 14:32:47;;;;;;;18.00;14.50;;;4.30;99.90;;;;;;4977717;28;20485;-62
2021/01/02 14:35:15;;;;;;;18.50;15.50;;;4.30;99.90;;;;;;4978061;28;20509;-64
2021/01/02 14:37:41;;;;;;;16.77;14.40;;;4.30;99.90;;;;;;4978140;28;20454;-63
2021/01/02 14:40:08;;;;;;;18.97;15.77;;;4.30;99.90;;;;;;4977716;28;20640;-64
2021/01/02 14:42:34;;;;;;;19.67;14.43;;;4.20;99.90;;;;;;4977240;28;20486;-62
2021/01/02 14:45:01;;;;;;;18.30;15.20;;;4.10;99.90;;;;;;4977084;28;20532;-65
2021/01/02 14:47:27;;;;;;;17.13;13.63;;;4.10;99.90;;;;;;4977478;28;20477;-64
2021/01/02 14:49:54;;;;;;;18.13;15.30;;;4.10;99.90;;;;;;4977439;28;20443;-63
2021/01/02 14:52:20;;;;;;;16.80;14.83;;;4.00;99.90;;;;;;4977081;28;20478;-65
2021/01/02 14:54:48;;;;;;;17.77;13.57;;;4.00;99.90;;;;;;4976952;28;20459;-64
2021/01/02 14:57:14;;;;;;;18.37;15.43;;;4.00;99.90;;;;;;4977018;28;20454;-63
2021/01/02 14:59:43;;;;;;;21.67;15.70;;;4.00;99.90;;;;;;4976967;28;20494;-63
2021/01/02 15:02:10;;;;;;;18.93;14.93;;;4.00;99.90;;;;;;4976410;28;20537;-64
2021/01/02 15:04:36;;;;;;;19.77;14.63;;;3.90;99.90;;;;;;4976893;28;20486;-63
2021/01/02 15:07:03;;;;;;;16.73;13.30;;;4.00;99.90;;;;;;4976984;28;20455;-64
2021/01/02 15:09:32;;;;;;;17.93;14.30;;;4.00;99.90;;;;;;4976711;28;20845;-64
2021/01/02 15:12:00;;;;;;;16.23;13.80;;;3.90;99.90;;;;;;4975625;28;20474;-64
2021/01/02 15:14:27;;;;;;;17.53;13.50;;;3.90;99.90;;;;;;4976514;28;20490;-63
2021/01/02 15:16:53;;;;;;;17.90;14.17;;;3.90;99.90;;;;;;4976754;28;20820;-63
2021/01/02 15:19:19;;;;;;;14.63;12.90;;;4.00;99.90;;;;;;4977054;28;20459;-62
2021/01/02 15:21:45;;;;;;;16.67;13.00;;;4.00;99.90;;;;;;4976637;28;20474;-64
2021/01/02 15:24:13;;;;;;;14.50;12.67;;;4.00;99.90;;;;;;4976909;28;20461;-64
2021/01/02 15:26:39;;;;;;;16.17;13.30;;;4.00;99.90;;;;;;4976137;28;20463;-63
2021/01/02 15:29:07;;;;;;;15.30;13.47;;;4.00;99.90;;;;;;4976433;28;20549;-63
2021/01/02 15:31:37;;;;;;;15.40;12.67;;;3.90;99.90;;;;;;4976223;28;20489;-64
2021/01/02 15:34:04;;;;;;;15.73;14.00;;;3.90;99.90;;;;;;4976324;28;20490;-65
2021/01/02 15:36:32;;;;;;;15.47;12.37;;;3.90;99.90;;;;;;4976656;28;20458;-63
2021/01/02 15:39:00;;;;;;;12.90;11.37;;;3.90;99.90;;;;;;4976675;28;20803;-62
2021/01/02 15:41:29;;;;;;;13.73;11.87;;;3.70;99.90;;;;;;4977286;28;20478;-62
2021/01/02 15:43:55;;;;;;;15.87;14.07;;;3.70;99.90;;;;;;4977042;28;20500;-64
2021/01/02 15:46:21;;;;;;;13.00;11.70;;;3.70;99.90;;;;;;4977469;28;20462;-64
2021/01/02 15:48:47;;;;;;;14.27;11.50;;;3.80;99.90;;;;;;4977180;28;20858;-62
2021/01/02 15:51:19;;;;;;;13.70;10.73;;;3.80;99.90;;;;;;4977119;28;20478;-62
2021/01/02 15:53:45;;;;;;;14.53;11.80;;;3.80;99.90;;;;;;4977485;28;20439;-62
2021/01/02 15:56:19;;;;;;;15.10;12.47;;;3.80;99.90;;;;;;4975905;28;20458;-63
2021/01/02 15:58:46;;;;;;;15.20;12.67;;;3.70;99.90;;;;;;4976609;28;20443;-62
2021/01/02 16:01:12;;;;;;;13.80;11.83;;;3.70;99.90;;;;;;4976396;28;20478;-63
2021/01/02 16:03:38;;;;;;;14.53;12.40;;;3.60;99.90;;;;;;4975966;28;20454;-64
2021/01/02 16:06:05;;;;;;;17.43;12.23;;;3.60;99.90;;;;;;4976139;28;20463;-64
2021/01/02 16:08:31;;;;;;;17.17;13.00;;;3.70;99.90;;;;;;4975896;28;20480;-63
2021/01/02 16:10:57;;;;;;;15.77;11.93;;;3.60;99.90;;;;;;4975950;28;20482;-64
2021/01/02 16:13:24;;;;;;;13.60;11.40;;;3.60;99.90;;;;;;4975714;28;20800;-63
2021/01/02 16:15:51;;;;;;;14.20;11.37;;;3.60;99.90;;;;;;4975944;28;20520;-63
2021/01/02 16:18:17;;;;;;;13.10;10.77;;;3.60;99.90;;;;;;4975627;28;20953;-62
2021/01/02 16:20:43;;;;;;;11.27;9.80;;;3.60;99.90;;;;;;4976091;28;20475;-63
2021/01/02 16:23:09;;;;;;;13.37;11.37;;;3.50;99.90;;;;;;4975646;28;20462;-63
2021/01/02 16:25:35;;;;;;;11.47;10.23;;;3.60;99.90;;;;;;4975347;28;20989;-64
2021/01/02 16:28:02;;;;;;;12.73;11.03;;;3.60;99.90;;;;;;4975986;28;20458;-63
2021/01/02 16:30:28;;;;;;;12.10;10.73;;;3.70;99.90;;;;;;4975799;28;20462;-63
2021/01/02 16:32:55;;;;;;;12.80;11.23;;;3.50;99.90;;;;;;4975838;28;20473;-63
2021/01/02 16:35:21;;;;;;;13.40;11.20;;;3.60;99.90;;;;;;4975772;28;20442;-64
2021/01/02 16:37:48;;;;;;;12.97;10.83;;;3.60;99.90;;;;;;4975300;28;21074;-63
2021/01/02 16:40:15;;;;;;;14.63;10.83;;;3.70;99.90;;;;;;4977212;28;20462;-64
2021/01/02 16:42:41;;;;;;;11.73;10.60;;;3.70;99.90;;;;;;4975728;28;20474;-63
2021/01/02 16:45:11;;;;;;;13.03;10.73;;;3.80;99.90;;;;;;4975489;28;20478;-64
2021/01/02 16:47:37;;;;;;;17.87;11.07;;;3.70;99.90;;;;;;4975780;28;20438;-64
2021/01/02 16:50:06;;;;;;;20.70;13.03;;;3.60;99.90;;;;;;4975643;28;20454;-65
2021/01/02 16:52:33;;;;;;;13.23;11.47;;;3.60;99.90;;;;;;4975195;28;20482;-63
2021/01/02 16:55:00;;;;;;;12.83;11.20;;;3.70;99.90;;;;;;4975431;28;20451;-65
2021/01/02 16:57:26;;;;;;;13.33;10.77;;;3.90;99.90;;;;;;4975857;28;20447;-63
2021/01/02 16:59:53;;;;;;;12.20;11.00;;;3.90;99.90;;;;;;4975670;28;20820;-64
2021/01/02 17:02:19;;;;;;;11.93;10.43;;;4.00;99.90;;;;;;4975233;28;20478;-64
2021/01/02 17:04:45;;;;;;;11.83;10.63;;;4.00;99.90;;;;;;4975441;28;20494;-65
2021/01/02 17:07:14;;;;;;;11.93;10.70;;;4.00;99.90;;;;;;4975313;28;20466;-65
2021/01/02 17:09:41;;;;;;;11.03;9.90;;;4.00;99.90;;;;;;4975744;28;20465;-63
2021/01/02 17:12:08;;;;;;;13.50;12.10;;;4.00;99.90;;;;;;4975680;28;20458;-64
2021/01/02 17:14:35;;;;;;;12.50;11.20;;;4.00;99.90;;;;;;4976172;28;20206;-65
2021/01/02 17:17:02;;;;;;;16.13;12.13;;;4.10;99.90;;;;;;4974802;28;20463;-63
2021/01/02 17:19:28;;;;;;;16.73;14.07;;;4.10;99.90;;;;;;4975008;28;20455;-64
2021/01/02 17:21:56;;;;;;;18.10;14.87;;;4.10;99.90;;;;;;4974835;28;20877;-63
2021/01/02 17:24:25;;;;;;;20.00;16.07;;;4.00;99.90;;;;;;4974488;28;20969;-63
2021/01/02 17:26:55;;;;;;;25.37;19.63;;;3.90;99.90;;;;;;4974816;28;20489;-64
2021/01/02 17:29:21;;;;;;;25.97;19.83;;;3.80;99.90;;;;;;4974887;28;20447;-63
2021/01/02 17:31:49;;;;;;;23.73;18.43;;;3.80;99.90;;;;;;4974734;28;20474;-63
2021/01/02 17:34:18;;;;;;;23.20;18.87;;;3.80;99.90;;;;;;4975632;28;20462;-64
2021/01/02 17:36:47;;;;;;;21.60;18.40;;;3.80;99.90;;;;;;4977321;28;20455;-64
2021/01/02 17:39:13;;;;;;;21.00;18.43;;;3.80;99.90;;;;;;4979026;28;20454;-64
2021/01/02 17:41:41;;;;;;;20.33;16.70;;;3.80;99.90;;;;;;4978889;28;20482;-64